Airfield :
LOGIN :

Register | Disclaimer

   EN    FR    IT 

 










Legend :    VFR   Marginal VFR   IFR   Intensive IFR   Very Intensive IFR
Visi :
Ceiling :
>= 8 km
>= 3000ft
5 to 8 km
1000 to 3000 ft
1500m to 5 km
500 to 1000 ft
800 to 1500m
200 to 500 ft
< 800m
< 200 ft
Symbols :   Thunderstorms  Fog  Heavy snow  Heavy precipitations  Wind > 20 kt
SIGMETs :     Misc.  Thunderstorms  Icing  Turbulence  Mountain Waves  Volcanic Ashes






- Airport Elevation : 427 ft
- IATA code : CIA


LIRA - Roma Ciampino

CURRENT METAR :
  • 250820Z 06006KT CAVOK 03/M04 Q1031

EXPIRED METARs :
  • 250750Z 06007KT CAVOK 02/M04 Q1031
  • 250720Z 05004KT 010V070 CAVOK 01/M04 Q1031
  • 250650Z 05007KT 360V070 CAVOK 01/M05 Q1030
  • 250620Z 05007KT CAVOK 01/M04 Q1030
  • 250550Z 09004KT CAVOK 01/M04 Q1030

TAF TAF LIRA
Valid from the 25 at 06:00 until the 26 at 06:00 UTC


250500Z 2506/2606 04008KT 9999 FEW040



MET'MAP, your aeronautical weather chart ! - Copyright ORBIFLY December 2007 - Disclaimer

ORBIFLY MET'MAP TEAM :

Programming & Development : Alexandra Zaïnal
Original concept : Baudouin d'Aumeries
Technical & hardware support : Manuel Goepfert
Assistance : Marc-Olivier Méhu

Contact : metmap@orbifly.com




SOURCES & CREDITS :

   NOAA